createdAt,value
2017-11-20T00:02:07.944Z,3.57
2017-11-20T00:04:39.563Z,3.70
2017-11-20T00:07:10.874Z,3.80
2017-11-20T00:09:42.181Z,4.27
2017-11-20T00:12:13.920Z,3.57
2017-11-20T00:14:45.219Z,3.40
2017-11-20T00:17:16.554Z,3.33
2017-11-20T00:19:48.163Z,4.07
2017-11-20T00:22:19.467Z,3.97
2017-11-20T00:24:51.073Z,3.17
2017-11-20T00:27:22.469Z,4.40
2017-11-20T00:29:53.956Z,3.40
2017-11-20T00:32:25.602Z,4.03
2017-11-20T00:34:56.943Z,3.87
2017-11-20T00:37:28.448Z,3.30
2017-11-20T00:40:00.050Z,4.10
2017-11-20T00:42:31.358Z,4.00
2017-11-20T00:45:04.306Z,3.30
2017-11-20T00:47:36.458Z,3.57
2017-11-20T00:50:07.781Z,3.73
2017-11-20T00:52:40.328Z,2.90
2017-11-20T00:55:11.695Z,3.77
2017-11-20T00:57:43.306Z,4.13
2017-11-20T01:00:14.805Z,4.90
2017-11-20T01:02:46.117Z,3.63
2017-11-20T01:05:17.970Z,3.50
2017-11-20T01:07:49.273Z,4.37
2017-11-20T01:10:20.761Z,4.07
2017-11-20T01:12:52.917Z,2.93
2017-11-20T01:15:24.296Z,3.50
2017-11-20T01:17:55.875Z,4.07
2017-11-20T01:20:27.285Z,3.80
2017-11-20T01:22:58.609Z,3.83
2017-11-20T01:25:30.270Z,5.40
2017-11-20T01:28:03.633Z,3.50
2017-11-20T01:30:34.928Z,3.60
2017-11-20T01:33:06.665Z,4.63
2017-11-20T01:35:38.479Z,4.93
2017-11-20T01:38:09.814Z,4.70
2017-11-20T01:40:41.440Z,4.30
2017-11-20T01:43:12.758Z,3.87
2017-11-20T01:45:44.068Z,3.70
2017-11-20T01:48:15.672Z,3.47
2017-11-20T01:50:46.972Z,3.53
2017-11-20T01:53:18.605Z,3.80
2017-11-20T01:55:50.409Z,4.27
2017-11-20T01:58:21.774Z,4.60
2017-11-20T02:00:53.426Z,3.60
2017-11-20T02:03:24.837Z,3.57
2017-11-20T02:05:56.145Z,3.40
2017-11-20T02:08:27.829Z,3.10
2017-11-20T02:10:59.128Z,3.53
2017-11-20T02:13:31.036Z,4.23
2017-11-20T02:16:02.804Z,3.50
2017-11-20T02:18:34.221Z,3.63
2017-11-20T02:21:05.958Z,4.20
2017-11-20T02:23:37.255Z,3.37
2017-11-20T02:26:08.735Z,3.53
2017-11-20T02:28:40.461Z,3.90
2017-11-20T02:31:11.797Z,3.27
2017-11-20T02:33:43.385Z,4.27
2017-11-20T02:36:14.727Z,3.47
2017-11-20T02:38:46.065Z,4.40
2017-11-20T02:41:17.724Z,3.87
2017-11-20T02:43:49.401Z,4.43
2017-11-20T02:46:20.767Z,4.53
2017-11-20T02:48:52.695Z,4.60
2017-11-20T02:51:24.283Z,4.00
2017-11-20T02:53:55.916Z,5.97
2017-11-20T02:56:27.869Z,4.73
2017-11-20T02:58:59.285Z,4.10
2017-11-20T03:01:33.452Z,5.47
2017-11-20T03:04:05.725Z,4.30
2017-11-20T03:06:37.321Z,4.97
2017-11-20T03:09:08.654Z,5.20
2017-11-20T03:11:39.985Z,4.53
2017-11-20T03:14:11.598Z,5.43
2017-11-20T03:16:42.893Z,4.40
2017-11-20T03:19:14.306Z,4.57
2017-11-20T03:21:45.936Z,5.37
2017-11-20T03:24:17.308Z,4.50
2017-11-20T03:26:49.785Z,3.93
2017-11-20T03:29:21.263Z,4.00
2017-11-20T03:31:52.582Z,4.27
2017-11-20T03:34:23.910Z,3.80
2017-11-20T03:36:55.936Z,4.80
2017-11-20T03:39:28.894Z,5.27
2017-11-20T03:42:00.744Z,4.37
2017-11-20T03:44:33.532Z,5.40
2017-11-20T03:47:05.878Z,5.40
2017-11-20T03:49:37.184Z,4.57
2017-11-20T03:52:08.813Z,4.80
2017-11-20T03:54:41.072Z,5.10
2017-11-20T03:57:12.669Z,5.57
2017-11-20T03:59:44.178Z,5.33
2017-11-20T04:02:15.484Z,5.03
2017-11-20T04:04:46.784Z,5.13
2017-11-20T04:07:18.242Z,5.57
2017-11-20T04:09:50.040Z,5.20
2017-11-20T04:12:21.372Z,4.97
2017-11-20T04:14:52.980Z,5.20
2017-11-20T04:17:24.270Z,5.70
2017-11-20T04:19:55.573Z,5.53
2017-11-20T04:22:27.224Z,6.07
2017-11-20T04:24:58.545Z,5.87
2017-11-20T04:27:31.029Z,5.50
2017-11-20T04:30:04.307Z,5.70
2017-11-20T04:32:36.061Z,5.77
2017-11-20T04:35:07.562Z,6.80
2017-11-20T04:37:43.969Z,5.07
2017-11-20T04:40:15.407Z,6.23
2017-11-20T04:42:47.024Z,5.50
2017-11-20T04:45:18.340Z,6.50
2017-11-20T04:47:49.647Z,5.23
2017-11-20T04:50:21.003Z,7.20
2017-11-20T04:52:52.329Z,6.67
2017-11-20T04:55:23.953Z,5.53
2017-11-20T04:57:56.656Z,5.37
2017-11-20T05:00:29.066Z,6.40
2017-11-20T05:03:00.375Z,6.53
2017-11-20T05:05:32.496Z,6.00
2017-11-20T05:08:05.312Z,7.33
2017-11-20T05:10:36.744Z,6.37
2017-11-20T05:13:08.354Z,6.53
2017-11-20T05:15:39.774Z,7.33
2017-11-20T05:18:11.485Z,7.20
2017-11-20T05:20:42.834Z,5.73
2017-11-20T05:23:14.116Z,6.20
2017-11-20T05:25:46.919Z,6.33
2017-11-20T05:28:18.220Z,6.43
2017-11-20T05:30:49.880Z,6.63
2017-11-20T05:33:21.185Z,5.87
2017-11-20T05:35:52.900Z,6.40
2017-11-20T05:38:24.512Z,7.60
2017-11-20T05:40:55.836Z,5.70
2017-11-20T05:43:35.196Z,6.80
2017-11-20T05:46:07.794Z,8.87
2017-11-20T05:48:39.231Z,7.60
2017-11-20T05:51:10.542Z,7.57
2017-11-20T05:53:42.165Z,8.57
2017-11-20T05:56:13.470Z,7.17
2017-11-20T05:58:44.785Z,8.90
2017-11-20T06:01:16.401Z,10.70
2017-11-20T06:03:47.709Z,9.90
2017-11-20T06:06:19.057Z,10.50
2017-11-20T06:08:52.051Z,9.07
2017-11-20T06:11:23.401Z,9.97
2017-11-20T06:13:55.044Z,9.20
2017-11-20T06:16:26.372Z,10.27
2017-11-20T06:18:58.319Z,11.40
2017-11-20T06:21:29.966Z,11.80
2017-11-20T06:24:02.509Z,12.00
2017-11-20T06:26:34.377Z,11.10
2017-11-20T06:29:06.049Z,12.97
2017-11-20T06:31:37.714Z,12.27
2017-11-20T06:34:09.062Z,12.53
2017-11-20T06:36:40.403Z,14.37
2017-11-20T06:39:12.033Z,11.10
2017-11-20T06:41:43.370Z,9.00
2017-11-20T06:44:14.715Z,10.03
2017-11-20T06:46:46.526Z,9.97
2017-11-20T06:49:17.900Z,8.70
2017-11-20T06:51:49.561Z,10.43
2017-11-20T06:54:20.965Z,9.13
2017-11-20T06:56:52.335Z,9.03
2017-11-20T06:59:24.072Z,8.13
2017-11-20T07:01:55.480Z,9.83
2017-11-20T07:04:26.913Z,8.80
2017-11-20T07:06:58.553Z,8.53
2017-11-20T07:09:30.172Z,8.97
2017-11-20T07:12:04.100Z,9.70
2017-11-20T07:14:38.263Z,9.30
2017-11-20T07:17:09.662Z,9.80
2017-11-20T07:19:41.297Z,9.60
2017-11-20T07:22:12.684Z,8.40
2017-11-20T07:24:44.056Z,9.40
2017-11-20T07:27:25.342Z,8.43
2017-11-20T07:30:39.497Z,7.63
2017-11-20T07:33:11.205Z,9.57
2017-11-20T07:35:42.790Z,8.43
2017-11-20T07:38:22.043Z,9.10
2017-11-20T07:41:07.013Z,9.77
2017-11-20T07:43:39.711Z,9.90
2017-11-20T07:46:11.468Z,8.40
2017-11-20T07:48:42.803Z,8.83
2017-11-20T07:51:14.157Z,9.20
2017-11-20T07:53:45.981Z,9.03
2017-11-20T07:56:17.378Z,9.27
2017-11-20T07:58:50.580Z,8.50
2017-11-20T08:01:22.241Z,10.07
2017-11-20T08:03:53.647Z,9.00
2017-11-20T08:06:25.011Z,7.83
2017-11-20T08:08:56.699Z,9.83
2017-11-20T08:11:28.470Z,9.53
2017-11-20T08:13:59.823Z,10.13
2017-11-20T08:16:31.483Z,7.87
2017-11-20T08:19:03.568Z,9.10
2017-11-20T08:21:35.342Z,9.40
2017-11-20T08:24:07.190Z,8.80
2017-11-20T08:26:38.556Z,7.50
2017-11-20T08:29:09.985Z,7.27
2017-11-20T08:31:43.536Z,8.03
2017-11-20T08:34:14.944Z,7.77
2017-11-20T08:36:46.649Z,8.00
2017-11-20T08:39:18.451Z,7.33
2017-11-20T08:41:51.183Z,6.33
2017-11-20T08:44:22.633Z,14.83
2017-11-20T08:46:54.588Z,6.90
2017-11-20T08:51:54.789Z,6.10
2017-11-20T08:54:26.451Z,6.37
2017-11-20T08:56:57.837Z,7.57
2017-11-20T08:59:30.128Z,7.93
2017-11-20T09:02:01.637Z,6.77
2017-11-20T09:04:33.906Z,7.23
2017-11-20T09:07:05.671Z,5.70
2017-11-20T09:09:37.232Z,5.73
2017-11-20T09:12:09.701Z,7.77
2017-11-20T09:14:41.078Z,7.20
2017-11-20T09:17:12.503Z,5.83
2017-11-20T09:19:44.354Z,6.50
2017-11-20T09:22:15.723Z,6.97
2017-11-20T09:24:47.627Z,6.80
2017-11-20T09:27:19.364Z,7.10
2017-11-20T09:29:50.757Z,6.43
2017-11-20T09:32:22.393Z,6.17
2017-11-20T09:34:53.821Z,6.53
2017-11-20T09:37:25.273Z,5.90
2017-11-20T09:39:56.987Z,6.57
2017-11-20T09:42:28.806Z,6.17
2017-11-20T09:45:00.158Z,6.03
2017-11-20T09:47:33.137Z,5.23
2017-11-20T09:50:05.672Z,7.20
2017-11-20T09:52:37.480Z,6.07
2017-11-20T09:55:08.970Z,6.00
2017-11-20T09:57:40.573Z,6.30
2017-11-20T10:00:12.536Z,6.20
2017-11-20T10:02:43.944Z,5.50
2017-11-20T10:05:16.151Z,5.67
2017-11-20T10:07:47.724Z,7.10
2017-11-20T10:10:19.429Z,6.10
2017-11-20T10:12:51.473Z,5.40
2017-11-20T10:15:22.971Z,4.80
2017-11-20T10:17:54.394Z,5.37
2017-11-20T10:20:26.066Z,5.10
2017-11-20T10:22:57.436Z,5.57
2017-11-20T10:25:29.682Z,5.50
2017-11-20T10:28:04.468Z,5.30
2017-11-20T10:30:35.878Z,7.30
2017-11-20T10:33:07.549Z,6.23
2017-11-20T10:35:39.078Z,6.70
2017-11-20T10:38:10.778Z,5.47
2017-11-20T10:40:42.382Z,5.80
2017-11-20T10:43:14.063Z,6.20
2017-11-20T10:45:45.924Z,5.80
2017-11-20T10:48:17.315Z,5.97
2017-11-20T10:50:48.750Z,5.50
2017-11-20T10:53:20.445Z,5.87
2017-11-20T10:55:51.819Z,5.10
2017-11-20T10:58:24.203Z,5.83
2017-11-20T11:00:55.865Z,5.50
2017-11-20T11:03:27.573Z,4.43
2017-11-20T11:05:59.616Z,5.53
2017-11-20T11:08:31.418Z,5.20
2017-11-20T11:11:03.244Z,4.80
2017-11-20T11:13:35.821Z,5.10
2017-11-20T11:16:07.390Z,4.70
2017-11-20T11:18:39.871Z,5.27
2017-11-20T11:21:11.612Z,4.83
2017-11-20T11:23:43.038Z,4.67
2017-11-20T11:26:14.735Z,5.27
2017-11-20T11:28:48.344Z,6.63
2017-11-20T11:31:19.849Z,5.20
2017-11-20T11:33:51.603Z,6.03
2017-11-20T11:36:23.136Z,6.20
2017-11-20T11:38:54.614Z,6.43
2017-11-20T11:41:26.377Z,5.87
2017-11-20T11:43:57.835Z,6.30
2017-11-20T11:46:32.188Z,6.03
2017-11-20T11:49:04.438Z,6.53
2017-11-20T11:51:36.637Z,6.10
2017-11-20T11:54:08.546Z,5.83
2017-11-20T11:56:39.941Z,5.83
2017-11-20T11:59:11.388Z,6.93
2017-11-20T12:01:43.049Z,6.20
2017-11-20T12:04:14.454Z,6.10
2017-11-20T12:06:46.085Z,5.60
2017-11-20T12:09:17.811Z,6.03
2017-11-20T12:11:49.527Z,6.53
2017-11-20T12:14:22.384Z,5.60
2017-11-20T12:16:54.045Z,6.00
2017-11-20T12:19:25.628Z,5.40
2017-11-20T12:21:57.460Z,6.17
2017-11-20T12:27:17.616Z,6.33
2017-11-20T12:29:49.730Z,6.57
2017-11-20T12:32:21.161Z,5.47
2017-11-20T12:34:53.065Z,6.27
2017-11-20T12:37:25.896Z,6.20
2017-11-20T12:39:58.113Z,5.97
2017-11-20T12:42:29.779Z,6.20
2017-11-20T12:45:14.211Z,5.97
2017-11-20T12:47:45.641Z,6.60
2017-11-20T12:50:17.580Z,6.17
2017-11-20T12:52:49.106Z,6.03
2017-11-20T12:55:20.772Z,7.10
2017-11-20T12:57:52.842Z,6.57
2017-11-20T13:00:24.365Z,6.83
2017-11-20T13:02:55.916Z,6.90
2017-11-20T13:05:28.418Z,7.90
2017-11-20T13:11:06.852Z,43.60
2017-11-20T13:13:40.164Z,7.80
2017-11-20T13:16:12.273Z,7.47
2017-11-20T13:18:44.479Z,7.57
2017-11-20T13:21:24.252Z,6.50
2017-11-20T13:23:58.025Z,7.53
2017-11-20T13:26:32.346Z,7.80
2017-11-20T13:29:10.872Z,7.03
2017-11-20T13:31:44.944Z,8.30
2017-11-20T13:34:16.816Z,8.60
2017-11-20T13:36:51.858Z,8.03
2017-11-20T13:42:39.792Z,8.60
2017-11-20T13:45:12.896Z,7.27
2017-11-20T13:47:48.331Z,7.97
2017-11-20T13:50:21.540Z,7.33
2017-11-20T13:52:53.597Z,7.73
2017-11-20T13:55:28.323Z,8.53
2017-11-20T13:58:04.161Z,8.20
2017-11-20T14:00:36.425Z,7.80
2017-11-20T14:03:12.291Z,7.70
2017-11-20T14:05:43.793Z,7.43
2017-11-20T14:08:19.064Z,8.50
2017-11-20T14:10:51.513Z,8.53
2017-11-20T14:13:24.118Z,8.20
2017-11-20T14:15:55.873Z,8.63
2017-11-20T14:18:28.567Z,11.77
2017-11-20T14:21:02.447Z,8.90
2017-11-20T14:23:36.836Z,7.80
2017-11-20T14:26:18.926Z,7.70
2017-11-20T14:28:51.438Z,9.37
2017-11-20T14:31:23.202Z,7.70
2017-11-20T14:33:54.699Z,8.20
2017-11-20T14:36:29.277Z,9.30
2017-11-20T14:39:01.494Z,8.20
2017-11-20T14:41:33.268Z,9.03
2017-11-20T14:44:15.954Z,9.30
2017-11-20T14:46:48.018Z,9.30
2017-11-20T14:49:28.018Z,9.40
2017-11-20T14:52:00.586Z,9.10
2017-11-20T15:00:34.814Z,9.90
2017-11-20T15:03:06.689Z,9.97
2017-11-20T15:08:41.964Z,9.90
2017-11-20T15:11:13.566Z,10.83
2017-11-20T15:16:39.732Z,10.00
2017-11-20T15:19:11.931Z,10.13
2017-11-20T15:21:45.489Z,10.77
2017-11-20T15:24:36.196Z,10.93
2017-11-20T15:27:07.795Z,11.03
2017-11-20T15:29:40.198Z,8.93
2017-11-20T15:32:12.618Z,10.77
2017-11-20T15:34:45.555Z,12.03
2017-11-20T15:40:28.117Z,10.20
2017-11-20T15:43:00.350Z,10.47
2017-11-20T15:45:33.857Z,12.17
2017-11-20T15:48:22.880Z,10.90
2017-11-20T15:51:04.559Z,10.90
2017-11-20T15:53:39.000Z,10.80
2017-11-20T15:59:17.045Z,10.37
2017-11-20T16:01:49.314Z,9.83
2017-11-20T16:04:24.742Z,11.37
2017-11-20T16:06:56.501Z,11.50
2017-11-20T16:09:27.859Z,11.00
2017-11-20T16:11:59.230Z,11.37
2017-11-20T16:14:30.756Z,11.80
2017-11-20T16:17:06.382Z,11.23
2017-11-20T16:19:38.066Z,10.60
2017-11-20T16:22:09.455Z,11.40
2017-11-20T16:27:29.079Z,11.10
2017-11-20T16:30:00.686Z,12.23
2017-11-20T16:32:32.054Z,11.10
2017-11-20T16:35:06.504Z,12.57
2017-11-20T16:37:37.956Z,12.70
2017-11-20T16:40:11.529Z,13.13
2017-11-20T16:42:44.607Z,13.23
2017-11-20T16:45:16.472Z,13.53
2017-11-20T16:47:47.930Z,13.87
2017-11-20T16:50:19.298Z,13.17
2017-11-20T16:52:51.233Z,13.00
2017-11-20T16:55:22.902Z,13.27
2017-11-20T16:58:10.806Z,14.33
2017-11-20T17:00:49.846Z,15.67
2017-11-20T17:03:21.364Z,15.60
2017-11-20T17:05:53.159Z,14.17
2017-11-20T17:08:24.537Z,13.77
2017-11-20T17:10:57.000Z,14.40
2017-11-20T17:13:28.696Z,14.50
2017-11-20T17:16:00.542Z,14.73
2017-11-20T17:18:32.124Z,14.80
2017-11-20T17:21:05.173Z,17.40
2017-11-20T17:23:36.517Z,15.40
2017-11-20T17:26:11.511Z,15.20
2017-11-20T17:28:43.689Z,17.70
2017-11-20T17:31:15.368Z,17.60
2017-11-20T17:33:48.531Z,14.80
2017-11-20T17:36:19.906Z,15.33
2017-11-20T17:38:51.942Z,16.90
2017-11-20T17:41:23.415Z,16.63
2017-11-20T17:43:55.286Z,15.57
2017-11-20T17:46:27.351Z,15.73
2017-11-20T17:48:59.290Z,15.50
2017-11-20T17:51:31.023Z,16.10
2017-11-20T17:54:03.869Z,16.00
2017-11-20T17:56:35.527Z,14.90
2017-11-20T17:59:07.039Z,15.90
2017-11-20T18:01:38.470Z,14.80
2017-11-20T18:04:10.427Z,16.33
2017-11-20T18:06:41.798Z,17.30
2017-11-20T18:09:13.159Z,16.83
2017-11-20T18:11:46.513Z,15.73
2017-11-20T18:14:17.978Z,15.40
2017-11-20T18:19:55.152Z,14.30
2017-11-20T18:22:35.004Z,13.90
2017-11-20T18:25:07.810Z,13.83
2017-11-20T18:27:40.047Z,13.47
2017-11-20T18:30:12.539Z,13.73
2017-11-20T18:32:44.369Z,14.77
2017-11-20T18:35:16.802Z,14.37
2017-11-20T18:37:48.512Z,13.30
2017-11-20T18:40:20.580Z,13.40
2017-11-20T18:42:54.089Z,13.50
2017-11-20T18:45:27.544Z,13.10
2017-11-20T18:47:58.917Z,13.20
2017-11-20T18:50:30.712Z,13.20
2017-11-20T18:53:05.293Z,13.80
2017-11-20T18:55:40.612Z,12.87
2017-11-20T18:58:12.404Z,14.40
2017-11-20T19:03:06.061Z,14.00
2017-11-20T19:05:48.201Z,13.70
2017-11-20T19:08:36.622Z,13.30
2017-11-20T19:11:11.424Z,14.90
2017-11-20T19:13:45.819Z,13.87
2017-11-20T19:16:18.493Z,13.67
2017-11-20T19:18:50.234Z,14.13
2017-11-20T19:21:22.792Z,13.97
2017-11-20T19:24:13.270Z,14.83
2017-11-20T19:26:56.762Z,14.80
2017-11-20T19:29:30.556Z,15.70
2017-11-20T19:32:09.021Z,14.50
2017-11-20T19:34:40.929Z,14.17
2017-11-20T19:37:16.955Z,14.33
2017-11-20T19:39:49.221Z,14.03
2017-11-20T19:42:21.540Z,14.60
2017-11-20T19:44:53.321Z,14.60
2017-11-20T19:47:25.743Z,15.20
2017-11-20T19:49:58.649Z,14.90
2017-11-20T19:52:30.422Z,13.87
2017-11-20T19:55:04.075Z,15.10
2017-11-20T19:57:35.477Z,16.27
2017-11-20T20:00:12.354Z,15.60
2017-11-20T20:02:47.656Z,18.73
2017-11-20T20:05:21.592Z,18.80
2017-11-20T20:07:53.461Z,18.40
2017-11-20T20:10:29.889Z,16.97
2017-11-20T20:13:03.594Z,15.90
2017-11-20T20:15:45.936Z,17.37
2017-11-20T20:18:20.770Z,17.90
2017-11-20T20:20:53.292Z,19.50
2017-11-20T20:26:03.020Z,19.57
2017-11-20T20:28:35.673Z,18.37
2017-11-20T20:34:17.358Z,19.47
2017-11-20T20:36:49.857Z,17.93
2017-11-20T20:39:23.349Z,17.80
2017-11-20T20:41:54.902Z,16.13
2017-11-20T20:44:27.040Z,13.93
2017-11-20T20:47:11.933Z,14.37
2017-11-20T20:49:47.242Z,14.33
2017-11-20T20:52:39.945Z,14.50
2017-11-20T20:55:14.812Z,14.50
2017-11-20T20:57:53.402Z,14.80
2017-11-20T21:00:26.706Z,14.90
2017-11-20T21:02:58.894Z,13.00
2017-11-20T21:05:34.688Z,15.60
2017-11-20T21:08:17.929Z,14.30
2017-11-20T21:10:53.610Z,12.43
2017-11-20T21:13:26.313Z,14.77
2017-11-20T21:15:59.651Z,12.30
2017-11-20T21:18:34.693Z,12.80
2017-11-20T21:21:08.142Z,12.57
2017-11-20T21:23:40.052Z,11.67
2017-11-20T21:26:17.947Z,12.20
2017-11-20T21:28:49.818Z,13.20
2017-11-20T21:31:31.202Z,11.80
2017-11-20T21:34:04.057Z,11.70
2017-11-20T21:36:35.996Z,12.37
2017-11-20T21:39:08.961Z,12.17
2017-11-20T21:41:41.114Z,10.60
2017-11-20T21:44:17.475Z,11.20
2017-11-20T21:46:48.857Z,10.33
2017-11-20T21:49:22.121Z,10.20
2017-11-20T21:51:54.789Z,9.60
2017-11-20T21:54:26.269Z,10.40
2017-11-20T21:56:57.661Z,11.13
2017-11-20T21:59:29.353Z,10.90
2017-11-20T22:02:00.719Z,10.97
2017-11-20T22:04:34.016Z,11.03
2017-11-20T22:07:06.184Z,11.37
2017-11-20T22:09:38.108Z,10.80
2017-11-20T22:12:18.589Z,11.47
2017-11-20T22:14:52.840Z,10.33
2017-11-20T22:17:24.868Z,11.30
2017-11-20T22:22:56.329Z,10.37
2017-11-20T22:25:28.259Z,11.93
2017-11-20T22:28:00.029Z,8.70
2017-11-20T22:30:34.424Z,7.87
2017-11-20T22:33:09.020Z,5.10
2017-11-20T22:35:41.535Z,3.93
2017-11-20T22:38:14.284Z,3.80
2017-11-20T22:40:46.103Z,3.77
2017-11-20T22:43:18.235Z,3.73
2017-11-20T22:45:49.884Z,3.43
2017-11-20T22:48:21.222Z,4.00
2017-11-20T22:50:52.548Z,4.73
2017-11-20T22:53:25.319Z,5.70
2017-11-20T22:55:56.779Z,5.43
2017-11-20T22:58:29.681Z,5.10
2017-11-20T23:01:01.909Z,4.80
2017-11-20T23:03:34.989Z,4.30
2017-11-20T23:06:11.143Z,4.10
2017-11-20T23:08:44.500Z,3.73
2017-11-20T23:11:15.954Z,2.20
2017-11-20T23:13:49.746Z,2.97
2017-11-20T23:16:21.300Z,2.70
2017-11-20T23:21:54.038Z,2.10
2017-11-20T23:24:27.076Z,2.30
2017-11-20T23:26:59.645Z,2.30
2017-11-20T23:29:30.977Z,1.90
2017-11-20T23:32:05.127Z,1.90
2017-11-20T23:34:36.521Z,2.33
2017-11-20T23:37:08.162Z,2.50
2017-11-20T23:39:39.536Z,3.27
2017-11-20T23:42:11.135Z,3.00
2017-11-20T23:44:42.467Z,3.23
2017-11-20T23:47:13.855Z,3.50
2017-11-20T23:49:46.732Z,4.27
2017-11-20T23:52:18.238Z,5.27
2017-11-20T23:54:50.642Z,3.70
2017-11-20T23:57:23.122Z,4.47
2017-11-20T23:59:54.429Z,4.77
